Friday, November 24, 2017, 8:10 AM EST
Back to Local

KMSS, Massena International -richards Fld

Location: Massena, NY, United States Lat: 44.933
Local Time: 8:10 AM EST (13:10 GMT) Lon: -74.85
Time Zone: US/Eastern Elev: 213 ft

Show me the last for .
Show Coded

Time T Td Feel RH Dir Speed Gust Alt SLP Vis Weather Sky Remarks
2017-11-24 07:53 36 32 31 85 190° 6 - 29.91 29.92 10 FEW027 SCT032 OVC041 None
2017-11-24 07:36 35 31 30 84 210° 6 - 29.92 - 10 FEW027 BKN033 OVC040 None
2017-11-24 06:53 35 31 31 84 210° 5 - 29.91 29.92 10 BKN027 OVC046 6-hr Min Temp (7am): 35.1°F
6-hr Max Temp (7am): 36.0°F
2017-11-24 06:45 36 31 31 81 220° 6 - 29.91 - 10 BKN027 OVC046 None
2017-11-24 05:53 35 30 29 81 220° 7 - 29.90 29.92 10 BKN031 OVC048 None
2017-11-24 04:53 36 30 30 78 240° 7 - 29.90 29.91 10 OVC050 None
2017-11-24 03:53 36 29 31 75 Variable 6 - 29.89 29.90 10 OVC050 None
2017-11-24 02:53 36 29 28 75 220° 12 - 29.89 29.90 10 OVC050 None
2017-11-24 01:53 36 31 28 81 210° 10 - 29.88 29.90 10 OVC055 None
2017-11-24 00:53 35 33 26 92 210° 13 - 29.87 29.88 10 OVC047 6-hr Precip Total (1am): 0.00"
6-hr Min Temp (1am): 33.1°F
6-hr Max Temp (1am): 35.1°F
2017-11-23 23:53 35 33 25 92 210° 16 - 29.88 29.90 10 OVC046 24-hr Min Temp (12am): 17.1°F
24-hr Max Temp (12am): 35.1°F
2017-11-23 22:53 34 32 24 92 220° 16 - 29.89 29.90 10 OVC060 1-hr Precip Total: Trace
2017-11-23 21:53 34 29 24 81 200° 15 - 29.88 29.89 10 OVC060 1-hr Precip Total: Trace
6-hr Precip Total (10pm): 0.00"
2017-11-23 20:53 34 27 24 75 220° 15 - 29.90 29.92 9 -SN SCT029 OVC038 1-hr Precip Total: Trace
2017-11-23 19:53 34 27 25 75 220° 13 - 29.91 29.93 10 BKN050 OVC070 None
2017-11-23 18:53 33 27 23 77 210° 15 - 29.91 29.93 10 SCT065 OVC080 6-hr Min Temp (7pm): 30.9°F
6-hr Max Temp (7pm): 33.1°F
2017-11-23 17:53 32 26 24 78 200° 9 - 29.93 29.94 10 OVC110 None
2017-11-23 16:53 32 26 25 78 190° 8 - 29.93 29.95 10 OVC110 None
2017-11-23 16:16 32 25 24 74 210° 9 - 29.94 - 10 FEW023 OVC110 None
2017-11-23 15:53 32 25 24 74 200° 9 - 29.94 29.96 10 BKN025 BKN080 OVC100 None
2017-11-23 14:53 31 24 24 75 200° 7 - 29.96 29.98 10 OVC027 None
2017-11-23 14:32 31 24 23 75 200° 9 - 29.97 - 10 BKN029 OVC035 None
2017-11-23 13:53 31 23 22 72 220° 12 - 29.99 30.01 10 OVC036 None
2017-11-23 12:53 31 23 23 72 220° 9 - 30.01 30.03 10 BKN040 OVC110 6-hr Min Temp (1pm): 18.0°F
6-hr Max Temp (1pm): 30.9°F
2017-11-23 11:53 29 20 21 68 200° 8 - 30.04 30.06 10 BKN040 None
2017-11-23 10:53 26 19 17 74 200° 9 - 30.08 30.10 10 BKN041 None
2017-11-23 09:53 24 18 17 77 190° 6 - 30.12 30.14 10 BKN110 None
2017-11-23 08:53 22 18 13 84 180° 7 - 30.14 30.16 10 CLR None

Support USWX by starting your Amazon purchase here.